ePrivacy and GPDR Cookie Consent by Cookie Consent
EmailTwitter


Observations de surface / Québec / CYSC

Régions: Québec | Canada | États-Unis | Europe | France | UK | Ailleurs
Station
Affichage
Infos & localisation pour CYSC | Aide pour décoder les METARs

Observations prises le 2022-11-29 à 21H00 UTC à SHERBROOKE, QB (CYSC)

Etat du ciel: couvert.

Température: -2.0 Celsius

Point de rosée: -6.0 Celsius

Humidité relative: 74%

Vents: Variable à 4 km/h ou 2 noeuds.

Pression au niveau moyen de la mer: 102.65 kilopascals.

Calage altimétrique: 102.51 kilopascals ou 30.27 pouces de mercure.

Visibilité horizontale: 9.00 milles terrestres ou 14.40 kilomètres.

Hauteur du plafond: 853 mètres ( 2800 pieds ).

Observation METAR:

CYSC 292100Z AUTO VRB02KT 9SM OVC028 M02/M06 A3027 RMK SLP265=